Time;durP1;ratioP1;P1;durP2;ratioP2;P2;SDS_P1;SDS_P2;PMS_P1;PMS_P2;Temp;Humidity;BMP_temperature;BMP_pressure;BME280_temperature;BME280_humidity;BME280_pressure;Samples;Min_cycle;Max_cycle;Signal;HPM_P1;HPM_P2
2021/12/26 00:00:23;;;;;;;11.18;5.88;;;;;;;;;;5008757;28;20171;-60
2021/12/26 00:02:48;;;;;;;7.70;6.57;;;;;;;;;;5018937;28;20038;-59
2021/12/26 00:05:14;;;;;;;14.15;8.75;;;;;;;;;;5010026;28;20409;-60
2021/12/26 00:07:40;;;;;;;15.50;11.35;;;;;;;;;;5010990;28;20026;-60
2021/12/26 00:10:07;;;;;;;19.98;9.63;;;;;;;;;;5010935;28;20025;-59
2021/12/26 00:12:32;;;;;;;12.35;7.07;;;;;;;;;;5011104;28;20017;-59
2021/12/26 00:14:57;;;;;;;6.00;5.40;;;;;;;;;;5011339;28;20080;-59
2021/12/26 00:17:23;;;;;;;15.20;7.07;;;;;;;;;;5009259;28;20042;-60
2021/12/26 00:19:48;;;;;;;12.48;7.38;;;;;;;;;;5028983;28;20025;-59
2021/12/26 00:22:13;;;;;;;5.15;4.75;;;;;;;;;;5011642;28;20096;-59
2021/12/26 00:24:38;;;;;;;5.68;5.22;;;;;;;;;;5010571;28;20041;-60
2021/12/26 00:27:04;;;;;;;49.88;28.77;;;;;;;;;;5009924;28;20038;-59
2021/12/26 00:29:29;;;;;;;13.10;7.40;;;;;;;;;;5009770;28;20033;-59
2021/12/26 00:31:54;;;;;;;32.60;13.00;;;;;;;;;;5011582;28;20022;-59
2021/12/26 00:34:19;;;;;;;5.00;4.30;;;;;;;;;;5029325;28;20440;-59
2021/12/26 00:36:45;;;;;;;57.90;23.10;;;;;;;;;;5020020;28;20056;-59
2021/12/26 00:39:10;;;;;;;38.00;16.15;;;;;;;;;;5009207;28;20057;-59
2021/12/26 00:41:39;;;;;;;13.95;8.93;;;;;;;;;;5011156;28;20033;-59
2021/12/26 00:44:04;;;;;;;23.73;11.70;;;;;;;;;;5027054;28;20032;-60
2021/12/26 00:46:30;;;;;;;18.08;10.50;;;;;;;;;;5030129;28;20026;-59
2021/12/26 00:48:55;;;;;;;7.93;5.70;;;;;;;;;;5018830;28;20010;-59
2021/12/26 00:51:20;;;;;;;28.08;12.27;;;;;;;;;;5011100;28;20056;-60
2021/12/26 00:53:45;;;;;;;68.18;23.02;;;;;;;;;;5010459;28;20559;-60
2021/12/26 00:56:10;;;;;;;5.82;5.30;;;;;;;;;;5017258;28;20507;-60
2021/12/26 00:58:36;;;;;;;8.13;5.22;;;;;;;;;;5015749;28;20026;-59
2021/12/26 01:01:01;;;;;;;5.43;4.93;;;;;;;;;;5008909;28;20042;-59
2021/12/26 01:03:27;;;;;;;35.08;14.65;;;;;;;;;;5010666;28;20112;-60
2021/12/26 01:05:53;;;;;;;10.13;6.03;;;;;;;;;;5009490;28;20026;-59
2021/12/26 01:08:20;;;;;;;4.30;3.92;;;;;;;;;;5017520;28;20027;-59
2021/12/26 01:10:49;;;;;;;30.85;12.25;;;;;;;;;;5029066;28;20084;-59
2021/12/26 01:13:23;;;;;;;343.80;143.00;;;;;;;;;;5030418;28;20030;-59
2021/12/26 01:15:49;;;;;;;27.52;10.80;;;;;;;;;;5028532;28;20038;-59
2021/12/26 01:18:15;;;;;;;64.88;26.30;;;;;;;;;;5015925;28;20452;-59
2021/12/26 01:20:51;;;;;;;6.25;5.57;;;;;;;;;;5010722;28;20057;-59
2021/12/26 01:23:17;;;;;;;9.57;5.85;;;;;;;;;;5022866;28;20032;-60
2021/12/26 01:25:42;;;;;;;24.70;10.05;;;;;;;;;;5032144;28;20092;-60
2021/12/26 01:28:08;;;;;;;6.50;5.88;;;;;;;;;;5034086;28;20385;-60
2021/12/26 01:30:34;;;;;;;6.15;4.47;;;;;;;;;;5031856;28;20072;-60
2021/12/26 01:32:59;;;;;;;8.15;5.85;;;;;;;;;;5033677;28;20101;-60
2021/12/26 01:35:24;;;;;;;7.18;6.50;;;;;;;;;;5032240;28;20045;-60
2021/12/26 01:37:49;;;;;;;5.90;5.50;;;;;;;;;;5025905;28;20014;-60
2021/12/26 01:40:16;;;;;;;5.00;4.60;;;;;;;;;;5031817;28;20061;-60
2021/12/26 01:42:41;;;;;;;19.77;11.77;;;;;;;;;;5021936;28;20444;-60
2021/12/26 01:45:07;;;;;;;6.30;5.53;;;;;;;;;;5012602;28;20038;-60
2021/12/26 01:47:33;;;;;;;4.65;4.25;;;;;;;;;;5021783;28;20052;-59
2021/12/26 01:49:58;;;;;;;11.90;5.00;;;;;;;;;;5023009;28;20084;-60
2021/12/26 01:52:23;;;;;;;5.25;4.85;;;;;;;;;;5033142;28;20029;-60
2021/12/26 01:55:00;;;;;;;4.70;4.40;;;;;;;;;;5031698;28;20506;-59
2021/12/26 01:57:25;;;;;;;6.85;5.88;;;;;;;;;;5033088;28;20018;-60
2021/12/26 01:59:50;;;;;;;10.27;6.55;;;;;;;;;;5031850;28;20037;-60
2021/12/26 02:02:15;;;;;;;8.32;5.28;;;;;;;;;;5023583;28;20083;-60
2021/12/26 02:04:41;;;;;;;10.00;6.05;;;;;;;;;;5011954;28;20054;-60
2021/12/26 02:07:07;;;;;;;5.72;4.53;;;;;;;;;;5014484;28;20026;-60
2021/12/26 02:09:32;;;;;;;13.23;7.65;;;;;;;;;;5030765;28;20049;-60
2021/12/26 02:11:57;;;;;;;24.60;10.53;;;;;;;;;;5032947;28;20032;-60
2021/12/26 02:14:23;;;;;;;6.90;6.22;;;;;;;;;;5029613;28;20460;-59
2021/12/26 02:16:48;;;;;;;7.03;5.13;;;;;;;;;;5032736;28;20017;-59
2021/12/26 02:19:14;;;;;;;6.05;4.20;;;;;;;;;;5031310;28;20033;-58
2021/12/26 02:24:32;;;;;;;4.97;4.53;;;;;;;;;;5031103;28;20041;-58
2021/12/26 02:29:42;;;;;;;6.22;4.53;;;;;;;;;;5011210;28;20041;-59
2021/12/26 02:32:07;;;;;;;4.90;4.50;;;;;;;;;;5022436;28;20460;-59
2021/12/26 02:34:33;;;;;;;20.48;16.02;;;;;;;;;;5031117;28;20033;-59
2021/12/26 02:36:58;;;;;;;4.95;4.35;;;;;;;;;;5031645;28;20424;-59
2021/12/26 02:39:23;;;;;;;4.28;3.97;;;;;;;;;;5028525;28;20107;-59
2021/12/26 02:41:48;;;;;;;5.40;4.93;;;;;;;;;;5032343;28;20641;-59
2021/12/26 02:44:14;;;;;;;4.63;4.23;;;;;;;;;;5027013;28;20458;-59
2021/12/26 02:46:40;;;;;;;5.50;4.40;;;;;;;;;;5012438;28;20429;-58
2021/12/26 02:49:05;;;;;;;5.35;4.88;;;;;;;;;;5011517;28;20548;-58
2021/12/26 02:51:31;;;;;;;8.50;5.28;;;;;;;;;;5012307;28;20018;-58
2021/12/26 02:53:56;;;;;;;4.43;4.15;;;;;;;;;;5012744;28;20036;-59
2021/12/26 02:56:21;;;;;;;4.75;4.35;;;;;;;;;;5032298;28;20453;-59
2021/12/26 02:58:46;;;;;;;4.60;4.30;;;;;;;;;;5031770;28;20032;-59
2021/12/26 03:01:13;;;;;;;4.87;4.37;;;;;;;;;;5030203;28;20397;-59
2021/12/26 03:03:38;;;;;;;4.38;4.07;;;;;;;;;;5029929;28;20451;-59
2021/12/26 03:06:08;;;;;;;4.45;4.15;;;;;;;;;;5010869;28;20084;-60
2021/12/26 03:08:33;;;;;;;7.03;6.32;;;;;;;;;;5024428;28;20717;-60
2021/12/26 03:10:59;;;;;;;4.50;4.20;;;;;;;;;;5030510;28;20116;-60
2021/12/26 03:13:25;;;;;;;4.18;3.88;;;;;;;;;;5030213;28;20487;-59
2021/12/26 03:15:50;;;;;;;4.22;3.92;;;;;;;;;;5030161;28;20061;-60
2021/12/26 03:18:16;;;;;;;4.22;3.92;;;;;;;;;;5031733;28;20056;-60
2021/12/26 03:20:43;;;;;;;4.32;3.92;;;;;;;;;;5030152;28;20033;-60
2021/12/26 03:23:09;;;;;;;4.93;4.35;;;;;;;;;;5019902;28;20018;-60
2021/12/26 03:25:35;;;;;;;6.43;4.18;;;;;;;;;;5010327;28;20038;-60
2021/12/26 03:28:01;;;;;;;4.25;4.03;;;;;;;;;;5012207;28;20125;-59
2021/12/26 03:30:27;;;;;;;5.53;5.03;;;;;;;;;;5027635;28;20099;-59
2021/12/26 03:32:53;;;;;;;4.40;4.00;;;;;;;;;;5031837;28;20472;-59
2021/12/26 03:35:20;;;;;;;4.90;4.53;;;;;;;;;;5030253;28;20034;-59
2021/12/26 03:37:45;;;;;;;4.93;4.63;;;;;;;;;;5019819;28;20037;-59
2021/12/26 03:40:11;;;;;;;4.83;4.43;;;;;;;;;;5010383;28;20525;-59
2021/12/26 03:42:37;;;;;;;4.82;4.53;;;;;;;;;;5023459;28;20535;-58
2021/12/26 03:45:02;;;;;;;5.25;4.13;;;;;;;;;;5018955;28;20030;-58
2021/12/26 03:47:29;;;;;;;6.03;5.53;;;;;;;;;;5011591;28;20045;-58
2021/12/26 03:49:55;;;;;;;4.65;4.30;;;;;;;;;;5010361;28;20375;-58
2021/12/26 03:52:22;;;;;;;5.03;4.53;;;;;;;;;;5019796;28;20024;-58
2021/12/26 03:54:47;;;;;;;4.35;4.15;;;;;;;;;;5015650;28;20041;-59
2021/12/26 03:57:12;;;;;;;4.45;4.15;;;;;;;;;;5011387;28;20013;-59
2021/12/26 03:59:37;;;;;;;4.90;4.33;;;;;;;;;;5009378;28;20052;-59
2021/12/26 04:02:03;;;;;;;5.28;4.93;;;;;;;;;;5011471;28;20599;-59
2021/12/26 04:04:28;;;;;;;4.10;3.72;;;;;;;;;;5009916;28;20033;-59
2021/12/26 04:06:53;;;;;;;4.28;4.05;;;;;;;;;;5017767;28;20025;-59
2021/12/26 04:09:18;;;;;;;5.45;4.90;;;;;;;;;;5017447;28;20042;-58
2021/12/26 04:11:45;;;;;;;4.72;4.15;;;;;;;;;;5017807;28;20021;-59
2021/12/26 04:14:11;;;;;;;5.10;4.65;;;;;;;;;;5029603;28;20031;-60
2021/12/26 04:16:36;;;;;;;4.85;4.45;;;;;;;;;;5029713;28;20056;-59
2021/12/26 04:19:02;;;;;;;5.07;4.43;;;;;;;;;;5019907;28;20022;-59
2021/12/26 04:21:27;;;;;;;4.57;4.28;;;;;;;;;;5016922;28;20021;-60
2021/12/26 04:23:52;;;;;;;5.17;4.30;;;;;;;;;;5029597;28;20373;-59
2021/12/26 04:26:18;;;;;;;6.70;4.28;;;;;;;;;;5031010;28;20416;-58
2021/12/26 04:28:43;;;;;;;4.07;3.88;;;;;;;;;;5030389;28;20029;-58
2021/12/26 04:31:08;;;;;;;4.57;4.27;;;;;;;;;;5029514;28;20037;-58
2021/12/26 04:33:33;;;;;;;4.87;4.47;;;;;;;;;;5030239;28;20448;-58
2021/12/26 04:35:58;;;;;;;4.10;3.80;;;;;;;;;;5028526;28;20467;-58
2021/12/26 04:38:23;;;;;;;6.03;4.33;;;;;;;;;;5015003;28;20543;-59
2021/12/26 04:40:51;;;;;;;6.20;5.60;;;;;;;;;;5028942;28;20448;-58
2021/12/26 04:43:16;;;;;;;5.10;4.60;;;;;;;;;;5010618;28;20975;-58
2021/12/26 04:45:41;;;;;;;4.93;4.53;;;;;;;;;;5009505;28;20053;-59
2021/12/26 04:48:07;;;;;;;4.60;4.30;;;;;;;;;;5011377;28;20026;-60
2021/12/26 04:50:32;;;;;;;5.38;4.88;;;;;;;;;;5009130;28;20038;-60
2021/12/26 04:52:57;;;;;;;5.17;4.87;;;;;;;;;;5027178;28;20109;-59
2021/12/26 04:55:24;;;;;;;5.22;4.43;;;;;;;;;;5010670;28;21030;-60
2021/12/26 04:57:49;;;;;;;5.57;5.28;;;;;;;;;;5014077;28;20025;-60
2021/12/26 05:00:16;;;;;;;4.75;4.40;;;;;;;;;;5013783;28;20037;-59
2021/12/26 05:02:42;;;;;;;5.18;4.78;;;;;;;;;;5023887;28;20080;-60
2021/12/26 05:05:08;;;;;;;4.70;4.30;;;;;;;;;;5022293;28;20053;-60
2021/12/26 05:07:34;;;;;;;5.15;4.63;;;;;;;;;;5020227;28;20017;-59
2021/12/26 05:09:59;;;;;;;6.05;5.45;;;;;;;;;;5021049;28;20040;-59
2021/12/26 05:12:24;;;;;;;7.35;4.57;;;;;;;;;;5023897;28;20084;-62
2021/12/26 05:14:50;;;;;;;6.82;5.45;;;;;;;;;;5021558;28;20117;-55
2021/12/26 05:17:15;;;;;;;5.15;4.72;;;;;;;;;;5024824;28;20468;-56
2021/12/26 05:19:40;;;;;;;5.00;4.38;;;;;;;;;;5019498;28;20052;-56
2021/12/26 05:22:06;;;;;;;5.37;4.87;;;;;;;;;;5019371;28;20110;-59
2021/12/26 05:24:31;;;;;;;5.23;4.63;;;;;;;;;;5024153;28;21019;-55
2021/12/26 05:26:56;;;;;;;5.05;4.65;;;;;;;;;;5020380;28;20513;-56
2021/12/26 05:29:21;;;;;;;4.18;3.80;;;;;;;;;;5021879;28;20038;-55
2021/12/26 05:31:46;;;;;;;9.43;5.33;;;;;;;;;;5022365;28;20492;-55
2021/12/26 05:34:11;;;;;;;5.60;5.07;;;;;;;;;;5026473;28;20479;-55
2021/12/26 05:36:36;;;;;;;5.28;4.65;;;;;;;;;;5011775;28;20538;-55
2021/12/26 05:39:02;;;;;;;6.50;5.07;;;;;;;;;;5011412;28;20471;-55
2021/12/26 05:41:27;;;;;;;4.95;4.63;;;;;;;;;;5013233;28;20014;-55
2021/12/26 05:43:53;;;;;;;5.63;5.25;;;;;;;;;;5014759;28;20014;-55
2021/12/26 05:46:18;;;;;;;5.97;5.28;;;;;;;;;;5027638;28;20018;-55
2021/12/26 05:48:43;;;;;;;4.60;4.22;;;;;;;;;;5029636;28;20380;-55
2021/12/26 05:51:08;;;;;;;7.00;4.60;;;;;;;;;;5020747;28;20053;-56
2021/12/26 05:53:33;;;;;;;4.63;4.33;;;;;;;;;;5031320;28;20044;-56
2021/12/26 05:55:59;;;;;;;5.25;4.85;;;;;;;;;;5017980;28;20534;-56
2021/12/26 05:58:24;;;;;;;5.43;4.82;;;;;;;;;;5011882;28;20064;-55
2021/12/26 06:00:49;;;;;;;6.13;4.67;;;;;;;;;;5013431;28;20030;-56
2021/12/26 06:03:14;;;;;;;4.85;4.50;;;;;;;;;;5011771;28;20459;-56
2021/12/26 06:05:39;;;;;;;5.10;4.70;;;;;;;;;;5019005;28;20464;-56
2021/12/26 06:08:04;;;;;;;5.00;4.25;;;;;;;;;;5028124;28;20448;-58
2021/12/26 06:10:29;;;;;;;5.90;5.37;;;;;;;;;;5023627;28;20033;-56
2021/12/26 06:12:55;;;;;;;4.73;4.20;;;;;;;;;;5012829;28;20441;-58
2021/12/26 06:15:20;;;;;;;4.10;3.90;;;;;;;;;;5011739;28;20568;-58
2021/12/26 06:17:45;;;;;;;5.07;4.72;;;;;;;;;;5028296;28;20025;-58
2021/12/26 06:20:14;;;;;;;5.77;5.27;;;;;;;;;;5021635;28;20449;-58
2021/12/26 06:22:40;;;;;;;6.43;5.80;;;;;;;;;;5013027;28;20456;-58
2021/12/26 06:25:05;;;;;;;5.43;4.95;;;;;;;;;;5020983;28;20608;-58
2021/12/26 06:27:30;;;;;;;4.60;4.30;;;;;;;;;;5019029;28;20017;-58
2021/12/26 06:29:56;;;;;;;5.18;4.75;;;;;;;;;;5023710;28;20037;-58
2021/12/26 06:32:21;;;;;;;4.77;4.40;;;;;;;;;;5031396;28;20108;-58
2021/12/26 06:34:46;;;;;;;4.25;3.92;;;;;;;;;;5019855;28;20463;-58
2021/12/26 06:37:11;;;;;;;6.07;4.07;;;;;;;;;;5026052;28;20029;-58
2021/12/26 06:39:36;;;;;;;4.22;3.92;;;;;;;;;;5010608;28;20378;-58
2021/12/26 06:42:02;;;;;;;5.47;4.97;;;;;;;;;;5018015;28;20022;-58
2021/12/26 06:44:28;;;;;;;5.00;4.55;;;;;;;;;;5016981;28;20463;-58
2021/12/26 06:46:54;;;;;;;5.22;4.82;;;;;;;;;;5031878;28;20035;-58
2021/12/26 06:49:19;;;;;;;4.85;4.55;;;;;;;;;;5020357;28;20524;-58
2021/12/26 06:51:45;;;;;;;5.25;4.38;;;;;;;;;;5022613;28;20095;-58
2021/12/26 06:54:10;;;;;;;7.55;5.43;;;;;;;;;;5028321;28;20033;-58
2021/12/26 06:56:35;;;;;;;5.10;4.80;;;;;;;;;;5029779;28;20375;-58
2021/12/26 06:59:00;;;;;;;5.60;5.20;;;;;;;;;;5013981;28;20053;-57
2021/12/26 07:01:25;;;;;;;5.13;4.67;;;;;;;;;;5012403;28;20038;-58
2021/12/26 07:03:51;;;;;;;5.75;5.22;;;;;;;;;;5012535;28;20521;-57
2021/12/26 07:06:16;;;;;;;6.55;6.00;;;;;;;;;;5021127;28;20041;-57
2021/12/26 07:08:41;;;;;;;8.97;6.03;;;;;;;;;;5012230;28;20025;-57
2021/12/26 07:11:06;;;;;;;5.63;5.18;;;;;;;;;;5010065;28;20851;-57
2021/12/26 07:13:31;;;;;;;4.93;4.53;;;;;;;;;;5010619;28;20014;-57
2021/12/26 07:15:56;;;;;;;5.57;5.18;;;;;;;;;;5025304;28;20090;-57
2021/12/26 07:18:22;;;;;;;6.47;5.97;;;;;;;;;;5027229;28;20034;-57
2021/12/26 07:20:47;;;;;;;5.27;4.87;;;;;;;;;;5023543;28;21030;-57
2021/12/26 07:23:12;;;;;;;8.02;6.18;;;;;;;;;;5025432;28;20523;-57
2021/12/26 07:25:37;;;;;;;8.80;4.57;;;;;;;;;;5018501;28;20038;-57
2021/12/26 07:28:03;;;;;;;5.38;4.68;;;;;;;;;;5010743;28;21002;-57
2021/12/26 07:30:28;;;;;;;7.47;5.43;;;;;;;;;;5026647;28;20034;-57
2021/12/26 07:32:54;;;;;;;4.25;4.00;;;;;;;;;;5012155;28;20017;-57
2021/12/26 07:35:19;;;;;;;5.50;5.03;;;;;;;;;;5008924;28;20044;-57
2021/12/26 07:37:45;;;;;;;6.32;5.15;;;;;;;;;;5010704;28;20021;-57
2021/12/26 07:40:11;;;;;;;6.38;5.78;;;;;;;;;;5013830;28;20072;-57
2021/12/26 07:42:36;;;;;;;5.28;4.70;;;;;;;;;;5020581;28;20042;-57
2021/12/26 07:45:02;;;;;;;6.32;4.43;;;;;;;;;;5022761;28;20091;-57
2021/12/26 07:47:27;;;;;;;16.60;8.50;;;;;;;;;;5014780;28;20467;-57
2021/12/26 07:49:52;;;;;;;49.88;18.55;;;;;;;;;;5017858;28;20030;-57
2021/12/26 07:52:21;;;;;;;16.60;8.88;;;;;;;;;;5027830;28;20035;-57
2021/12/26 07:54:46;;;;;;;80.82;41.88;;;;;;;;;;5022695;28;20518;-57
2021/12/26 07:57:12;;;;;;;6.53;6.00;;;;;;;;;;5018610;28;20017;-57
2021/12/26 07:59:37;;;;;;;8.25;6.78;;;;;;;;;;5017513;28;20519;-57
2021/12/26 08:02:03;;;;;;;5.28;4.88;;;;;;;;;;5019031;28;20045;-57
2021/12/26 08:04:28;;;;;;;13.45;11.05;;;;;;;;;;5015029;28;20455;-57
2021/12/26 08:06:53;;;;;;;7.63;6.03;;;;;;;;;;5020639;28;20469;-57
2021/12/26 08:09:19;;;;;;;7.70;7.00;;;;;;;;;;5018561;28;20494;-57
2021/12/26 08:11:44;;;;;;;6.18;5.57;;;;;;;;;;5019068;28;20020;-57
2021/12/26 08:14:09;;;;;;;5.45;5.05;;;;;;;;;;5015117;28;20381;-57
2021/12/26 08:16:34;;;;;;;7.43;6.73;;;;;;;;;;5012890;28;20552;-57
2021/12/26 08:19:01;;;;;;;6.68;6.05;;;;;;;;;;5007241;28;20552;-57
2021/12/26 08:21:26;;;;;;;8.82;5.25;;;;;;;;;;5012150;28;20504;-57
2021/12/26 08:23:51;;;;;;;10.00;5.47;;;;;;;;;;5010284;28;20022;-57
2021/12/26 08:26:16;;;;;;;6.13;5.03;;;;;;;;;;5008379;28;20121;-58
2021/12/26 08:28:41;;;;;;;5.75;5.22;;;;;;;;;;5009450;28;20852;-58
2021/12/26 08:31:09;;;;;;;5.90;5.10;;;;;;;;;;5024848;28;20037;-58
2021/12/26 08:33:35;;;;;;;6.40;5.80;;;;;;;;;;5024680;28;20523;-57
2021/12/26 08:36:00;;;;;;;6.63;6.13;;;;;;;;;;5012324;28;20042;-57
2021/12/26 08:38:26;;;;;;;6.15;5.72;;;;;;;;;;5014229;28;20034;-57
2021/12/26 08:40:52;;;;;;;5.40;5.00;;;;;;;;;;5017412;28;20042;-57
2021/12/26 08:43:18;;;;;;;5.78;5.30;;;;;;;;;;5029691;28;20017;-57
2021/12/26 08:45:44;;;;;;;5.28;4.88;;;;;;;;;;5029958;28;20034;-57
2021/12/26 08:48:09;;;;;;;5.28;4.90;;;;;;;;;;5021876;28;20029;-57
2021/12/26 08:50:34;;;;;;;8.07;5.03;;;;;;;;;;5014772;28;20120;-56
2021/12/26 08:52:59;;;;;;;5.93;5.37;;;;;;;;;;5013005;28;20465;-56
2021/12/26 08:55:25;;;;;;;5.35;4.80;;;;;;;;;;5026491;28;20452;-56
2021/12/26 08:57:51;;;;;;;7.03;5.78;;;;;;;;;;5012406;28;20029;-56
2021/12/26 09:00:17;;;;;;;5.68;5.18;;;;;;;;;;5020506;28;20136;-56
2021/12/26 09:02:42;;;;;;;7.47;6.30;;;;;;;;;;5022221;28;20089;-56
2021/12/26 09:05:07;;;;;;;13.88;6.22;;;;;;;;;;5019245;28;20384;-56
2021/12/26 09:07:33;;;;;;;7.93;5.28;;;;;;;;;;5022978;28;20181;-56
2021/12/26 09:09:58;;;;;;;5.75;5.03;;;;;;;;;;5021543;28;20048;-56
2021/12/26 09:12:23;;;;;;;10.40;5.97;;;;;;;;;;5022236;28;20025;-56
2021/12/26 09:14:49;;;;;;;5.70;5.15;;;;;;;;;;5014633;28;20042;-56
2021/12/26 09:17:14;;;;;;;7.47;5.07;;;;;;;;;;5026073;28;20018;-56
2021/12/26 09:19:39;;;;;;;6.15;5.65;;;;;;;;;;5022123;28;20033;-55
2021/12/26 09:22:05;;;;;;;5.88;4.55;;;;;;;;;;5018392;28;20057;-55
2021/12/26 09:24:31;;;;;;;8.85;5.80;;;;;;;;;;5018677;28;20449;-57
2021/12/26 09:26:56;;;;;;;10.88;6.20;;;;;;;;;;5030160;28;20034;-55
2021/12/26 09:29:22;;;;;;;5.85;5.35;;;;;;;;;;5016522;28;20528;-56
2021/12/26 09:31:47;;;;;;;5.85;5.35;;;;;;;;;;5011564;28;20026;-55
2021/12/26 09:34:13;;;;;;;6.57;5.45;;;;;;;;;;5011315;28;20126;-56
2021/12/26 09:36:39;;;;;;;6.78;6.10;;;;;;;;;;5012533;28;20401;-55
2021/12/26 09:39:04;;;;;;;7.22;5.43;;;;;;;;;;5011571;28;20022;-56
2021/12/26 09:41:29;;;;;;;5.45;5.05;;;;;;;;;;5012466;28;20018;-56
2021/12/26 09:43:54;;;;;;;7.18;5.72;;;;;;;;;;5012291;28;20021;-56
2021/12/26 09:46:19;;;;;;;9.38;6.15;;;;;;;;;;5014487;28;20071;-56
2021/12/26 09:48:45;;;;;;;6.57;5.27;;;;;;;;;;5013150;28;20735;-56
2021/12/26 09:51:10;;;;;;;7.15;5.15;;;;;;;;;;5011849;28;20468;-56
2021/12/26 09:53:39;;;;;;;6.93;5.57;;;;;;;;;;5013520;28;20080;-56
2021/12/26 09:56:04;;;;;;;;;;;;;;;;;;5012236;28;20034;-56
2021/12/26 09:58:29;;;;;;;7.30;6.53;;;;;;;;;;5013271;28;19915;-56
2021/12/26 10:00:54;;;;;;;5.87;5.37;;;;;;;;;;5011708;28;20109;-56
2021/12/26 10:03:25;;;;;;;8.88;6.72;;;;;;;;;;5028043;28;20456;-56
2021/12/26 10:05:54;;;;;;;7.45;5.78;;;;;;;;;;5031655;28;20403;-56
2021/12/26 10:08:19;;;;;;;6.95;6.22;;;;;;;;;;5032978;28;20097;-56
2021/12/26 10:11:02;;;;;;;11.90;6.30;;;;;;;;;;5023717;28;20467;-56
2021/12/26 10:13:40;;;;;;;7.35;5.72;;;;;;;;;;5012828;28;20416;-56
2021/12/26 10:16:05;;;;;;;7.40;6.10;;;;;;;;;;5016421;28;20132;-56
2021/12/26 10:18:31;;;;;;;6.55;6.00;;;;;;;;;;5032494;28;20100;-56
2021/12/26 10:20:56;;;;;;;6.32;5.72;;;;;;;;;;5031301;28;20034;-56
2021/12/26 10:23:25;;;;;;;6.70;6.10;;;;;;;;;;5032375;28;20108;-56
2021/12/26 10:25:50;;;;;;;;;;;;;;;;;;5031401;28;20455;-56
2021/12/26 10:28:15;;;;;;;6.20;5.43;;;;;;;;;;5032474;28;19905;-56
2021/12/26 10:30:43;;;;;;;6.93;5.30;;;;;;;;;;5020652;28;20069;-56
2021/12/26 10:33:09;;;;;;;7.18;6.05;;;;;;;;;;5012790;28;20076;-56
2021/12/26 10:35:34;;;;;;;9.40;5.75;;;;;;;;;;5011073;28;20490;-56
2021/12/26 10:37:59;;;;;;;7.10;5.60;;;;;;;;;;5012392;28;20101;-56
2021/12/26 10:40:26;;;;;;;6.77;5.67;;;;;;;;;;5027877;28;20464;-56
2021/12/26 10:42:55;;;;;;;9.80;7.13;;;;;;;;;;5032571;28;20482;-56
2021/12/26 10:45:23;;;;;;;6.30;5.70;;;;;;;;;;5030998;28;20404;-56
2021/12/26 10:47:55;;;;;;;9.95;6.70;;;;;;;;;;5012259;28;20381;-56
2021/12/26 10:50:22;;;;;;;6.63;5.85;;;;;;;;;;5010937;28;20048;-56
2021/12/26 10:52:52;;;;;;;7.13;6.53;;;;;;;;;;5011050;28;20044;-56
2021/12/26 10:55:18;;;;;;;8.40;7.72;;;;;;;;;;5010678;28;20038;-56
2021/12/26 10:57:44;;;;;;;8.05;6.00;;;;;;;;;;5011884;28;20018;-57
2021/12/26 11:00:13;;;;;;;8.60;5.97;;;;;;;;;;5015994;28;20052;-56
2021/12/26 11:02:40;;;;;;;11.13;9.63;;;;;;;;;;5031169;28;20438;-56
2021/12/26 11:05:15;;;;;;;6.18;5.78;;;;;;;;;;5030478;28;20040;-56
2021/12/26 11:07:54;;;;;;;7.93;6.78;;;;;;;;;;5027628;28;20080;-56
2021/12/26 11:10:21;;;;;;;7.50;6.65;;;;;;;;;;5010672;28;20029;-56
2021/12/26 11:12:48;;;;;;;8.93;7.85;;;;;;;;;;5011907;28;20040;-56
2021/12/26 11:15:21;;;;;;;11.02;7.15;;;;;;;;;;5097043;27;20677;-57
2021/12/26 11:18:07;;;;;;;6.68;6.10;;;;;;;;;;5088072;28;20017;-57
2021/12/26 11:20:33;;;;;;;8.77;7.50;;;;;;;;;;5085666;28;20036;-58
2021/12/26 11:22:59;;;;;;;6.78;5.97;;;;;;;;;;5087917;28;20463;-57
2021/12/26 11:25:25;;;;;;;9.05;6.20;;;;;;;;;;5086652;28;20067;-58
2021/12/26 11:27:50;;;;;;;7.45;6.60;;;;;;;;;;5086500;28;20421;-57
2021/12/26 11:30:16;;;;;;;7.68;6.97;;;;;;;;;;5066019;28;20037;-57
2021/12/26 11:32:42;;;;;;;10.50;7.82;;;;;;;;;;5067994;28;20055;-57
2021/12/26 11:35:08;;;;;;;8.63;6.95;;;;;;;;;;5066412;28;20048;-57
2021/12/26 11:37:33;;;;;;;8.30;7.40;;;;;;;;;;5068366;28;20104;-57
2021/12/26 11:39:59;;;;;;;8.75;7.47;;;;;;;;;;5066196;28;20440;-58
2021/12/26 11:42:52;;;;;;;8.52;7.65;;;;;;;;;;5072801;28;20020;-57
2021/12/26 11:45:34;;;;;;;9.77;8.50;;;;;;;;;;5086233;28;20043;-58
2021/12/26 11:48:24;;;;;;;7.45;6.72;;;;;;;;;;5088124;28;20070;-58
2021/12/26 11:51:01;;;;;;;8.02;7.30;;;;;;;;;;5086341;28;20036;-57
2021/12/26 11:53:41;;;;;;;8.68;6.72;;;;;;;;;;5087189;28;20016;-58
2021/12/26 11:56:32;;;;;;;12.73;7.80;;;;;;;;;;5084370;28;20770;-58
2021/12/26 11:59:05;;;;;;;10.38;7.65;;;;;;;;;;5086256;28;20043;-57
2021/12/26 12:01:32;;;;;;;10.23;8.77;;;;;;;;;;5087155;28;20087;-58
2021/12/26 12:04:17;;;;;;;8.93;8.02;;;;;;;;;;5086112;28;20028;-57
2021/12/26 12:06:44;;;;;;;8.93;7.10;;;;;;;;;;5068932;28;20297;-58
2021/12/26 12:09:24;;;;;;;9.43;7.63;;;;;;;;;;5065322;28;20037;-58
2021/12/26 12:11:56;;;;;;;11.00;8.60;;;;;;;;;;5084074;28;20020;-58
2021/12/26 12:14:41;;;;;;;9.02;8.05;;;;;;;;;;5085269;28;20531;-58
2021/12/26 12:17:14;;;;;;;10.10;7.97;;;;;;;;;;5086953;28;20051;-58
2021/12/26 12:19:59;;;;;;;13.48;7.38;;;;;;;;;;5084231;28;20071;-58
2021/12/26 12:22:24;;;;;;;9.27;8.27;;;;;;;;;;5072448;28;20058;-56
2021/12/26 12:24:51;;;;;;;8.77;7.93;;;;;;;;;;5058782;28;20124;-57
2021/12/26 12:27:17;;;;;;;11.57;8.27;;;;;;;;;;5049490;28;20029;-59
2021/12/26 12:29:42;;;;;;;14.65;11.40;;;;;;;;;;5051608;28;20587;-59
2021/12/26 12:32:07;;;;;;;9.23;7.97;;;;;;;;;;5050893;28;20115;-59
2021/12/26 12:34:44;;;;;;;8.50;7.68;;;;;;;;;;5050262;28;20635;-59
2021/12/26 12:37:09;;;;;;;11.45;8.75;;;;;;;;;;5053199;28;20033;-59
2021/12/26 12:39:34;;;;;;;8.47;7.57;;;;;;;;;;5046230;28;20040;-59
2021/12/26 12:42:00;;;;;;;11.07;8.82;;;;;;;;;;5052420;28;20505;-59
2021/12/26 12:44:29;;;;;;;8.38;7.53;;;;;;;;;;5047761;28;20037;-57
2021/12/26 12:47:15;;;;;;;11.77;8.48;;;;;;;;;;5051942;28;20025;-59
2021/12/26 12:49:41;;;;;;;9.50;8.05;;;;;;;;;;5043130;28;20029;-59
2021/12/26 12:52:07;;;;;;;8.75;7.90;;;;;;;;;;5049257;28;20021;-59
2021/12/26 12:54:32;;;;;;;10.50;8.88;;;;;;;;;;5050847;28;20037;-56
2021/12/26 12:57:00;;;;;;;13.48;10.73;;;;;;;;;;5049823;28;20028;-59
2021/12/26 12:59:26;;;;;;;13.27;9.52;;;;;;;;;;5050166;28;20032;-59
2021/12/26 13:01:59;;;;;;;10.00;8.98;;;;;;;;;;5052455;28;20013;-56
2021/12/26 13:04:25;;;;;;;10.43;9.18;;;;;;;;;;5049033;28;20041;-59
2021/12/26 13:06:51;;;;;;;9.50;8.35;;;;;;;;;;5051955;28;20017;-59
2021/12/26 13:09:16;;;;;;;9.60;8.65;;;;;;;;;;5047703;28;20477;-59
2021/12/26 13:11:42;;;;;;;9.63;8.73;;;;;;;;;;5050700;28;20025;-59
2021/12/26 13:14:08;;;;;;;10.68;9.13;;;;;;;;;;5050684;28;20063;-59
2021/12/26 13:16:33;;;;;;;12.47;8.60;;;;;;;;;;5052331;28;20021;-59
2021/12/26 13:19:05;;;;;;;12.27;11.02;;;;;;;;;;5058173;28;20016;-59
2021/12/26 13:21:30;;;;;;;10.52;8.45;;;;;;;;;;5051589;28;20096;-59
2021/12/26 13:23:55;;;;;;;10.25;8.50;;;;;;;;;;5047365;28;20096;-58
2021/12/26 13:26:20;;;;;;;10.82;8.75;;;;;;;;;;5051748;28;20543;-58
2021/12/26 13:28:46;;;;;;;12.18;9.75;;;;;;;;;;5049858;28;20025;-59
2021/12/26 13:31:13;;;;;;;11.05;9.55;;;;;;;;;;5050522;28;20033;-59
2021/12/26 13:33:39;;;;;;;13.55;11.10;;;;;;;;;;5048535;28;20017;-59
2021/12/26 13:36:21;;;;;;;11.63;9.52;;;;;;;;;;5049215;28;20396;-59
2021/12/26 13:38:47;;;;;;;15.73;10.27;;;;;;;;;;5045943;28;20021;-58
2021/12/26 13:41:13;;;;;;;11.30;9.55;;;;;;;;;;5049108;28;20037;-58
2021/12/26 13:43:40;;;;;;;10.23;9.05;;;;;;;;;;5056470;28;20021;-58
2021/12/26 13:46:06;;;;;;;11.00;9.90;;;;;;;;;;5051790;28;20102;-58
2021/12/26 13:48:33;;;;;;;12.63;9.40;;;;;;;;;;5055207;28;20092;-58
2021/12/26 13:51:15;;;;;;;13.68;9.38;;;;;;;;;;5052864;28;20044;-58
2021/12/26 13:53:40;;;;;;;18.98;12.85;;;;;;;;;;5051943;28;20017;-59
2021/12/26 13:56:05;;;;;;;13.25;10.15;;;;;;;;;;5049816;28;20025;-58
2021/12/26 13:58:36;;;;;;;17.23;11.68;;;;;;;;;;5050366;28;20021;-58
2021/12/26 14:01:01;;;;;;;13.60;11.25;;;;;;;;;;5047229;28;20033;-58
2021/12/26 14:03:27;;;;;;;11.95;9.18;;;;;;;;;;5051528;28;20539;-58
2021/12/26 14:05:52;;;;;;;15.43;11.48;;;;;;;;;;5046777;28;20045;-58
2021/12/26 14:08:27;;;;;;;14.00;9.52;;;;;;;;;;5050928;28;20025;-58
2021/12/26 14:11:04;;;;;;;26.38;17.83;;;;;;;;;;5050461;28;20120;-58
2021/12/26 14:13:29;;;;;;;13.00;10.73;;;;;;;;;;5049949;28;20049;-58
2021/12/26 14:15:57;;;;;;;16.92;11.15;;;;;;;;;;5056929;28;20369;-58
2021/12/26 14:18:26;;;;;;;12.35;9.70;;;;;;;;;;5048344;28;20357;-59
2021/12/26 14:20:56;;;;;;;14.23;11.18;;;;;;;;;;5044486;28;20144;-58
2021/12/26 14:23:21;;;;;;;16.85;11.07;;;;;;;;;;5051330;28;20409;-58
2021/12/26 14:25:48;;;;;;;16.93;10.77;;;;;;;;;;5048356;28;20083;-58
2021/12/26 14:28:14;;;;;;;12.15;10.85;;;;;;;;;;5051420;28;20459;-58
2021/12/26 14:30:39;;;;;;;13.73;11.82;;;;;;;;;;5051616;28;20041;-58
2021/12/26 14:33:05;;;;;;;13.30;10.48;;;;;;;;;;5045223;28;20025;-58
2021/12/26 14:35:31;;;;;;;16.10;11.45;;;;;;;;;;5049076;28;20130;-58
2021/12/26 14:38:10;;;;;;;14.70;9.93;;;;;;;;;;5051575;28;20008;-58
2021/12/26 14:40:36;;;;;;;17.77;12.55;;;;;;;;;;5047417;28;20064;-58